Time;durP1;ratioP1;P1;durP2;ratioP2;P2;SDS_P1;SDS_P2;PMS_P1;PMS_P2;Temp;Humidity;BMP_temperature;BMP_pressure;BME280_temperature;BME280_humidity;BME280_pressure;Samples;Min_cycle;Max_cycle;Signal;HPM_P1;HPM_P2
2024/03/14 00:01:00;;;;;;;1.33;1.23;;;5.60;99.90;;;;;;5093344;28;20165;-61
2024/03/14 00:03:28;;;;;;;2.20;1.30;;;5.50;99.90;;;;;;5093679;28;20161;-60
2024/03/14 00:05:54;;;;;;;1.25;1.25;;;5.60;99.90;;;;;;5093656;28;20562;-61
2024/03/14 00:08:20;;;;;;;0.90;0.90;;;5.50;99.90;;;;;;5093440;28;20173;-61
2024/03/14 00:10:47;;;;;;;0.90;0.90;;;5.50;99.90;;;;;;5093595;28;20173;-61
2024/03/14 00:13:13;;;;;;;1.13;1.00;;;5.30;99.90;;;;;;5093711;28;20173;-61
2024/03/14 00:15:39;;;;;;;0.60;0.60;;;5.30;99.90;;;;;;5093406;28;20347;-61
2024/03/14 00:18:04;;;;;;;0.97;0.97;;;5.40;99.90;;;;;;5093691;28;20169;-61
2024/03/14 00:20:31;;;;;;;1.23;1.13;;;5.50;99.90;;;;;;5093385;28;20174;-61
2024/03/14 00:22:58;;;;;;;1.17;1.00;;;5.60;99.90;;;;;;5093574;28;20256;-61
2024/03/14 00:25:24;;;;;;;1.58;1.48;;;5.40;99.90;;;;;;5093252;28;20796;-61
2024/03/14 00:27:49;;;;;;;1.00;1.00;;;5.40;99.90;;;;;;5093246;28;20272;-61
2024/03/14 00:30:18;;;;;;;1.33;1.23;;;5.40;99.90;;;;;;5093637;28;20493;-61
2024/03/14 00:32:44;;;;;;;1.60;1.50;;;5.30;99.90;;;;;;5093133;28;20177;-61
2024/03/14 00:35:12;;;;;;;2.10;1.20;;;5.40;99.90;;;;;;5093005;28;20678;-61
2024/03/14 00:37:38;;;;;;;1.13;1.00;;;5.40;99.90;;;;;;5093244;28;20453;-60
2024/03/14 00:40:08;;;;;;;0.70;0.70;;;5.50;99.90;;;;;;5092837;28;20185;-60
2024/03/14 00:42:34;;;;;;;2.50;1.27;;;5.50;99.90;;;;;;5093003;28;20588;-62
2024/03/14 00:45:00;;;;;;;3.63;1.10;;;5.60;99.90;;;;;;5092648;28;20183;-61
2024/03/14 00:47:26;;;;;;;1.10;1.00;;;5.70;99.90;;;;;;5092852;28;20419;-62
2024/03/14 00:49:52;;;;;;;1.10;1.00;;;5.60;99.90;;;;;;5074463;28;20208;-61
2024/03/14 00:52:19;;;;;;;1.48;1.38;;;5.60;99.90;;;;;;5092776;28;20173;-61
2024/03/14 00:54:44;;;;;;;0.95;0.70;;;5.60;99.90;;;;;;5092653;28;20184;-62
2024/03/14 00:57:10;;;;;;;0.83;0.83;;;5.70;99.90;;;;;;5092675;28;20275;-60
2024/03/14 00:59:36;;;;;;;0.90;0.60;;;5.60;99.90;;;;;;5092287;28;20165;-60
2024/03/14 01:02:02;;;;;;;0.85;0.80;;;5.60;99.90;;;;;;5092145;28;20225;-61
2024/03/14 01:04:29;;;;;;;0.70;0.70;;;5.50;99.90;;;;;;5092578;28;20169;-61
2024/03/14 01:06:55;;;;;;;0.50;0.50;;;5.60;99.90;;;;;;5092451;28;20290;-60
2024/03/14 01:09:27;;;;;;;0.93;0.80;;;5.60;99.90;;;;;;5092170;28;20169;-61
2024/03/14 01:11:53;;;;;;;1.33;1.00;;;5.70;99.90;;;;;;5092001;28;20195;-60
2024/03/14 01:14:20;;;;;;;2.53;1.23;;;5.80;99.90;;;;;;5091706;28;20226;-60
2024/03/14 01:16:46;;;;;;;0.88;0.70;;;5.80;99.90;;;;;;5092185;28;20200;-60
2024/03/14 01:19:12;;;;;;;1.00;0.90;;;5.80;99.90;;;;;;5092171;28;20171;-61
2024/03/14 01:21:38;;;;;;;0.90;0.90;;;5.90;99.90;;;;;;5092475;28;20404;-61
2024/03/14 01:24:04;;;;;;;0.70;0.70;;;5.90;99.90;;;;;;5092311;28;20569;-61
2024/03/14 01:26:30;;;;;;;0.80;0.77;;;5.90;99.90;;;;;;5092170;28;20185;-61
2024/03/14 01:28:56;;;;;;;0.90;0.90;;;5.90;99.90;;;;;;5091878;28;20649;-61
2024/03/14 01:31:21;;;;;;;0.90;0.75;;;5.90;99.90;;;;;;5092190;28;20165;-61
2024/03/14 01:33:47;;;;;;;1.43;0.93;;;5.80;99.90;;;;;;5073993;28;20203;-61
2024/03/14 01:36:13;;;;;;;0.80;0.70;;;5.60;99.90;;;;;;5091961;28;20205;-61
2024/03/14 01:38:38;;;;;;;1.30;1.20;;;5.50;99.90;;;;;;5091803;28;20545;-61
2024/03/14 01:41:18;;;;;;;0.70;0.70;;;5.60;99.90;;;;;;5092111;28;20180;-61
2024/03/14 01:43:59;;;;;;;0.52;0.52;;;5.60;99.90;;;;;;5092001;28;20901;-61
2024/03/14 01:46:29;;;;;;;0.80;0.80;;;5.60;99.90;;;;;;5092121;28;20515;-60
2024/03/14 01:48:55;;;;;;;0.75;0.75;;;5.70;99.90;;;;;;5091589;28;20176;-61
2024/03/14 01:51:25;;;;;;;1.08;0.98;;;5.70;99.90;;;;;;5091595;28;20172;-60
2024/03/14 01:53:51;;;;;;;1.35;1.00;;;5.60;99.90;;;;;;5091469;28;20646;-60
2024/03/14 01:56:21;;;;;;;0.90;0.90;;;5.50;99.90;;;;;;5091778;28;20221;-59
2024/03/14 01:58:51;;;;;;;1.00;0.70;;;5.60;99.90;;;;;;5091688;28;20173;-60
2024/03/14 02:01:17;;;;;;;0.90;0.90;;;5.70;99.90;;;;;;5091850;28;20546;-60
2024/03/14 02:04:00;;;;;;;0.88;0.82;;;5.80;99.90;;;;;;5091674;28;20166;-59
2024/03/14 02:06:34;;;;;;;1.00;0.90;;;5.80;99.90;;;;;;5092149;28;20196;-60
2024/03/14 02:09:00;;;;;;;1.42;0.90;;;5.80;99.90;;;;;;5091557;28;20169;-61
2024/03/14 02:11:25;;;;;;;0.93;0.85;;;5.80;99.90;;;;;;5091820;28;20182;-60
2024/03/14 02:13:52;;;;;;;0.70;0.70;;;5.60;99.90;;;;;;5091758;28;20674;-60
2024/03/14 02:16:18;;;;;;;0.60;0.60;;;5.50;99.90;;;;;;5091522;28;20209;-60
2024/03/14 02:18:45;;;;;;;2.23;0.80;;;5.60;99.90;;;;;;5091300;28;20180;-60
2024/03/14 02:21:12;;;;;;;1.20;1.20;;;5.60;99.90;;;;;;5091579;28;20494;-60
2024/03/14 02:23:38;;;;;;;1.73;1.25;;;5.50;99.90;;;;;;5092186;28;20177;-60
2024/03/14 02:26:06;;;;;;;1.27;1.17;;;5.40;99.90;;;;;;5095631;28;20193;-59
2024/03/14 02:28:32;;;;;;;1.35;1.00;;;5.60;99.90;;;;;;5095255;28;20187;-60
2024/03/14 02:30:58;;;;;;;3.17;1.33;;;5.70;99.90;;;;;;5095536;28;20256;-60
2024/03/14 02:33:24;;;;;;;1.85;1.75;;;5.70;99.90;;;;;;5095434;28;20406;-60
2024/03/14 02:35:49;;;;;;;1.90;1.70;;;5.70;99.90;;;;;;5095319;28;20201;-61
2024/03/14 02:38:15;;;;;;;0.83;0.83;;;5.70;99.90;;;;;;5095255;28;20423;-61
2024/03/14 02:40:43;;;;;;;1.67;1.57;;;5.70;99.90;;;;;;5095393;28;20171;-61
2024/03/14 02:43:09;;;;;;;1.23;1.13;;;5.70;99.90;;;;;;5095325;28;20260;-61
2024/03/14 02:45:36;;;;;;;1.00;1.00;;;5.60;99.90;;;;;;5095293;28;20285;-62
2024/03/14 02:48:04;;;;;;;3.72;1.20;;;5.50;99.90;;;;;;5094863;28;20218;-61
2024/03/14 02:50:30;;;;;;;1.10;1.00;;;5.40;99.90;;;;;;5094989;28;20633;-61
2024/03/14 02:52:57;;;;;;;0.60;0.60;;;5.40;99.90;;;;;;5095117;28;20218;-61
2024/03/14 02:55:22;;;;;;;1.77;1.17;;;5.80;99.90;;;;;;5094988;28;20591;-62
2024/03/14 02:57:48;;;;;;;1.20;1.10;;;5.40;99.90;;;;;;5095329;28;20199;-61
2024/03/14 03:00:16;;;;;;;1.23;0.80;;;5.40;99.90;;;;;;5094819;28;20547;-61
2024/03/14 03:02:44;;;;;;;2.83;1.25;;;5.50;99.90;;;;;;5094790;28;20411;-61
2024/03/14 03:05:10;;;;;;;0.90;0.80;;;5.50;99.90;;;;;;5076874;28;20558;-61
2024/03/14 03:07:36;;;;;;;1.20;1.10;;;5.60;99.90;;;;;;5094746;28;20212;-61
2024/03/14 03:10:05;;;;;;;1.48;1.30;;;5.60;99.90;;;;;;5094665;28;20185;-61
2024/03/14 03:12:32;;;;;;;0.85;0.80;;;5.70;99.90;;;;;;5094814;28;20566;-61
2024/03/14 03:14:58;;;;;;;1.70;1.17;;;5.60;99.90;;;;;;5094600;28;20272;-61
2024/03/14 03:17:23;;;;;;;0.60;0.60;;;5.70;99.90;;;;;;5094451;28;20281;-61
2024/03/14 03:19:49;;;;;;;0.80;0.80;;;5.60;99.90;;;;;;5094335;28;20519;-61
2024/03/14 03:22:15;;;;;;;3.37;1.00;;;5.50;99.90;;;;;;5094611;28;20178;-61
2024/03/14 03:24:40;;;;;;;1.13;1.03;;;5.40;99.90;;;;;;5094513;28;20169;-60
2024/03/14 03:27:13;;;;;;;0.83;0.80;;;5.30;99.90;;;;;;5094430;28;20745;-61
2024/03/14 03:29:39;;;;;;;1.85;0.80;;;5.30;99.90;;;;;;5094087;28;20177;-61
2024/03/14 03:32:05;;;;;;;0.65;0.65;;;5.40;99.90;;;;;;5094390;28;20260;-61
2024/03/14 03:34:30;;;;;;;1.43;0.93;;;5.40;99.90;;;;;;5094367;28;20676;-61
2024/03/14 03:36:56;;;;;;;0.80;0.60;;;5.40;99.90;;;;;;5093252;28;20202;-61
2024/03/14 03:39:25;;;;;;;0.70;0.70;;;5.40;99.90;;;;;;5094019;28;20625;-61
2024/03/14 03:41:52;;;;;;;1.38;0.60;;;5.30;99.90;;;;;;5094277;28;20172;-62
2024/03/14 03:44:20;;;;;;;0.75;0.75;;;5.30;99.90;;;;;;5094122;28;20190;-61
2024/03/14 03:46:45;;;;;;;1.27;1.05;;;5.20;99.90;;;;;;5094468;28;20608;-61
2024/03/14 03:49:11;;;;;;;0.90;0.80;;;5.20;99.90;;;;;;5092365;28;20269;-61
2024/03/14 03:51:36;;;;;;;0.60;0.60;;;5.30;99.90;;;;;;5094002;28;20559;-60
2024/03/14 03:54:03;;;;;;;1.03;1.00;;;5.30;99.90;;;;;;5093942;28;20181;-61
2024/03/14 03:56:29;;;;;;;1.30;0.70;;;5.40;99.90;;;;;;5093956;28;20218;-60
2024/03/14 03:58:55;;;;;;;0.60;0.60;;;5.40;99.90;;;;;;5093652;28;20657;-61
2024/03/14 04:01:22;;;;;;;0.50;0.50;;;5.40;99.90;;;;;;5094153;28;20917;-60
2024/03/14 04:03:48;;;;;;;2.15;1.10;;;5.30;99.90;;;;;;5093789;28;20261;-61
2024/03/14 04:06:17;;;;;;;0.50;0.50;;;5.20;99.90;;;;;;5093765;28;20219;-61
2024/03/14 04:08:45;;;;;;;2.58;1.00;;;5.30;99.90;;;;;;5093367;28;20200;-61
2024/03/14 04:11:11;;;;;;;0.60;0.60;;;5.40;99.90;;;;;;5093972;28;20643;-61
2024/03/14 04:13:37;;;;;;;0.50;0.50;;;5.40;99.90;;;;;;5093566;28;20174;-61
2024/03/14 04:16:04;;;;;;;0.70;0.60;;;5.40;99.90;;;;;;5093281;28;20785;-61
2024/03/14 04:18:34;;;;;;;0.40;0.40;;;5.50;99.90;;;;;;5093296;28;20173;-61
2024/03/14 04:21:02;;;;;;;0.70;0.60;;;5.50;99.90;;;;;;5093362;28;20187;-61
2024/03/14 04:23:28;;;;;;;0.80;0.80;;;5.50;99.90;;;;;;5093314;28;20177;-61
2024/03/14 04:25:54;;;;;;;0.50;0.50;;;5.50;99.90;;;;;;5093327;28;20568;-61
2024/03/14 04:28:23;;;;;;;0.60;0.60;;;5.50;99.90;;;;;;5093076;28;20188;-60
2024/03/14 04:30:49;;;;;;;0.50;0.50;;;5.40;99.90;;;;;;5092900;28;20593;-61
2024/03/14 04:33:15;;;;;;;0.50;0.47;;;5.40;99.90;;;;;;5093064;28;20204;-61
2024/03/14 04:35:40;;;;;;;0.60;0.60;;;5.50;99.90;;;;;;5092895;28;20277;-61
2024/03/14 04:38:06;;;;;;;0.80;0.57;;;5.60;99.90;;;;;;5092840;28;20173;-61
2024/03/14 04:40:31;;;;;;;0.93;0.90;;;5.60;99.90;;;;;;5093064;28;20727;-61
2024/03/14 04:42:58;;;;;;;1.23;1.13;;;5.50;99.90;;;;;;5093152;28;20661;-61
2024/03/14 04:45:24;;;;;;;0.70;0.70;;;5.30;99.90;;;;;;5092925;28;20170;-60
2024/03/14 04:47:50;;;;;;;0.60;0.60;;;5.50;99.90;;;;;;5092666;28;20177;-61
2024/03/14 04:50:20;;;;;;;0.82;0.60;;;5.50;99.90;;;;;;5092649;28;20264;-61
2024/03/14 04:52:45;;;;;;;0.60;0.60;;;5.60;99.90;;;;;;5093089;28;20588;-61
2024/03/14 04:55:12;;;;;;;0.70;0.70;;;5.50;99.90;;;;;;5092703;28;20487;-61
2024/03/14 04:57:43;;;;;;;4.90;1.05;;;5.60;99.90;;;;;;5092729;28;20402;-61
2024/03/14 05:02:45;;;;;;;0.75;0.75;;;5.50;99.90;;;;;;5092672;28;20176;-61
2024/03/14 05:05:11;;;;;;;0.95;0.95;;;5.50;99.90;;;;;;5092539;28;20173;-60
2024/03/14 05:07:39;;;;;;;0.83;0.63;;;5.60;99.90;;;;;;5091991;28;20200;-61
2024/03/14 05:10:05;;;;;;;0.82;0.82;;;5.70;99.90;;;;;;5092330;28;20185;-62
2024/03/14 05:12:31;;;;;;;0.77;0.70;;;5.60;99.90;;;;;;5092789;28;20185;-60
2024/03/14 05:14:57;;;;;;;1.27;0.73;;;5.70;99.90;;;;;;5092626;28;20172;-61
2024/03/14 05:17:24;;;;;;;0.50;0.50;;;5.80;99.90;;;;;;5092129;28;20580;-61
2024/03/14 05:19:50;;;;;;;0.40;0.40;;;5.80;99.90;;;;;;5092309;28;20241;-61
2024/03/14 05:22:17;;;;;;;1.37;0.77;;;5.80;99.90;;;;;;5092594;28;20240;-60
2024/03/14 05:24:42;;;;;;;0.93;0.70;;;5.80;99.90;;;;;;5092299;28;20403;-61
2024/03/14 05:27:08;;;;;;;1.13;0.90;;;5.80;99.90;;;;;;5092316;28;20185;-61
2024/03/14 05:29:34;;;;;;;1.23;0.97;;;5.90;99.90;;;;;;5092105;28;20181;-59
2024/03/14 05:32:00;;;;;;;1.15;0.80;;;5.90;99.90;;;;;;5092476;28;20408;-61
2024/03/14 05:34:26;;;;;;;1.53;0.87;;;5.90;99.90;;;;;;5092363;28;20226;-61
2024/03/14 05:36:52;;;;;;;1.80;0.77;;;5.80;99.90;;;;;;5092140;28;20462;-62
2024/03/14 05:39:21;;;;;;;0.80;0.80;;;5.80;99.90;;;;;;5091893;28;20409;-61
2024/03/14 05:41:47;;;;;;;0.50;0.50;;;5.70;99.90;;;;;;5092039;28;20165;-61
2024/03/14 05:44:12;;;;;;;0.60;0.60;;;5.60;99.90;;;;;;5092001;28;20223;-60
2024/03/14 05:46:38;;;;;;;0.63;0.63;;;5.70;99.90;;;;;;5091872;28;20192;-60
2024/03/14 05:49:06;;;;;;;0.60;0.60;;;5.80;99.90;;;;;;5073506;28;20172;-61
2024/03/14 05:51:31;;;;;;;0.57;0.50;;;5.80;99.90;;;;;;5092148;28;20559;-61
2024/03/14 05:53:57;;;;;;;1.07;0.80;;;5.80;99.90;;;;;;5091819;28;20176;-60
2024/03/14 05:56:22;;;;;;;1.17;0.53;;;5.80;99.90;;;;;;5091414;28;20239;-61
2024/03/14 05:58:49;;;;;;;0.47;0.47;;;5.80;99.90;;;;;;5091000;28;20698;-61
2024/03/14 06:01:16;;;;;;;0.95;0.95;;;5.80;99.90;;;;;;5091757;28;20575;-60
2024/03/14 06:03:43;;;;;;;1.50;1.00;;;5.80;99.90;;;;;;5091968;28;20176;-60
2024/03/14 06:06:10;;;;;;;0.70;0.70;;;5.70;99.90;;;;;;5092050;28;20279;-60
2024/03/14 06:08:35;;;;;;;0.82;0.73;;;5.70;99.90;;;;;;5091544;28;20187;-60
2024/03/14 06:11:02;;;;;;;0.60;0.60;;;5.90;99.90;;;;;;5091770;28;20164;-61
2024/03/14 06:13:28;;;;;;;0.60;0.60;;;6.00;99.90;;;;;;5091597;28;20407;-61
2024/03/14 06:15:53;;;;;;;0.80;0.80;;;5.90;99.90;;;;;;5073253;28;20642;-61
2024/03/14 06:18:21;;;;;;;0.60;0.60;;;5.90;99.90;;;;;;5091326;28;20231;-61
2024/03/14 06:20:47;;;;;;;0.40;0.40;;;5.90;99.90;;;;;;5091637;28;20252;-61
2024/03/14 06:23:14;;;;;;;3.73;1.60;;;6.10;99.90;;;;;;5091633;28;20207;-59
2024/03/14 06:25:40;;;;;;;3.38;2.15;;;6.20;99.90;;;;;;5091511;28;20210;-60
2024/03/14 06:28:07;;;;;;;2.20;2.00;;;6.20;99.90;;;;;;5091838;28;20206;-60
2024/03/14 06:30:34;;;;;;;0.98;0.98;;;6.20;99.90;;;;;;5091499;28;20183;-61
2024/03/14 06:33:00;;;;;;;0.50;0.50;;;6.20;99.90;;;;;;5091517;28;20172;-60
2024/03/14 06:35:26;;;;;;;0.57;0.57;;;6.30;99.90;;;;;;5091074;28;20185;-63
2024/03/14 06:37:55;;;;;;;0.50;0.50;;;6.50;99.90;;;;;;5090910;28;20778;-61
2024/03/14 06:40:22;;;;;;;0.75;0.50;;;6.70;99.90;;;;;;5090765;28;20398;-60
2024/03/14 06:42:49;;;;;;;0.55;0.55;;;6.80;99.90;;;;;;5091905;28;20191;-61
2024/03/14 06:45:15;;;;;;;0.70;0.70;;;7.10;99.90;;;;;;5091433;28;20233;-61
2024/03/14 06:47:43;;;;;;;4.68;2.72;;;6.90;99.90;;;;;;5091347;28;20180;-62
2024/03/14 06:50:09;;;;;;;1.15;0.63;;;7.10;99.90;;;;;;5091455;28;20180;-61
2024/03/14 06:52:36;;;;;;;3.80;0.55;;;7.20;99.90;;;;;;5091399;28;20245;-61
2024/03/14 06:55:03;;;;;;;0.63;0.63;;;7.30;99.90;;;;;;5085600;28;20278;-60
2024/03/14 06:57:28;;;;;;;0.50;0.50;;;7.40;99.90;;;;;;5091068;28;20203;-61
2024/03/14 06:59:54;;;;;;;1.17;0.90;;;7.40;99.90;;;;;;5091320;28;20178;-61
2024/03/14 07:02:21;;;;;;;1.83;1.33;;;7.40;99.90;;;;;;5091307;28;20161;-60
2024/03/14 07:04:48;;;;;;;1.00;0.90;;;7.70;99.90;;;;;;5091193;28;20646;-61
2024/03/14 07:07:16;;;;;;;1.77;1.67;;;8.20;99.90;;;;;;5091267;28;20665;-61
2024/03/14 07:09:42;;;;;;;1.70;1.13;;;9.00;99.90;;;;;;5090819;28;20169;-59
2024/03/14 07:12:09;;;;;;;2.73;1.07;;;9.90;99.90;;;;;;5093361;28;20926;-61
2024/03/14 07:14:36;;;;;;;2.87;1.50;;;10.80;99.90;;;;;;5076156;28;20268;-61
2024/03/14 07:17:02;;;;;;;1.50;1.40;;;11.90;99.90;;;;;;5094482;28;20461;-61
2024/03/14 07:19:27;;;;;;;1.67;1.30;;;13.30;99.90;;;;;;5094716;28;20411;-61
2024/03/14 07:21:56;;;;;;;1.90;1.80;;;14.40;99.90;;;;;;5094653;28;20403;-61
2024/03/14 07:24:23;;;;;;;1.33;1.23;;;15.50;97.50;;;;;;5094455;28;20195;-61
2024/03/14 07:26:49;;;;;;;1.03;0.80;;;16.60;94.30;;;;;;5094745;28;20881;-61
2024/03/14 07:29:15;;;;;;;0.60;0.60;;;17.60;91.30;;;;;;5075967;28;20902;-61
2024/03/14 07:31:45;;;;;;;0.80;0.70;;;18.80;85.70;;;;;;5094485;28;20406;-62
2024/03/14 07:34:11;;;;;;;0.50;0.50;;;20.00;82.00;;;;;;5094415;28;20407;-62
2024/03/14 07:36:39;;;;;;;0.57;0.57;;;21.10;77.40;;;;;;5094254;28;20787;-61
2024/03/14 07:39:09;;;;;;;0.50;0.40;;;22.00;75.20;;;;;;5093857;28;20428;-62
2024/03/14 07:41:37;;;;;;;0.80;0.70;;;22.90;68.10;;;;;;5094251;28;20399;-61
2024/03/14 07:44:03;;;;;;;0.60;0.60;;;23.20;65.70;;;;;;5094228;28;20418;-60
2024/03/14 07:46:30;;;;;;;0.80;0.80;;;24.10;64.60;;;;;;5094061;28;20423;-60
2024/03/14 07:48:58;;;;;;;1.73;0.93;;;25.20;61.60;;;;;;5093841;28;20498;-59
2024/03/14 07:51:27;;;;;;;1.03;0.53;;;26.00;57.60;;;;;;5094011;28;20803;-60
2024/03/14 07:53:53;;;;;;;0.70;0.60;;;26.60;55.00;;;;;;5093977;28;20430;-60
2024/03/14 07:56:20;;;;;;;0.50;0.50;;;27.00;54.10;;;;;;5093856;28;20922;-60
2024/03/14 07:58:46;;;;;;;0.53;0.53;;;27.60;52.10;;;;;;5093390;28;20165;-60
2024/03/14 08:01:18;;;;;;;0.50;0.50;;;28.10;49.70;;;;;;5093731;28;20414;-59
2024/03/14 08:03:48;;;;;;;1.00;0.73;;;28.40;47.50;;;;;;5093780;28;20167;-60
2024/03/14 08:06:18;;;;;;;1.60;1.50;;;28.90;46.20;;;;;;5093620;28;20439;-60
2024/03/14 08:08:45;;;;;;;0.80;0.70;;;29.50;45.90;;;;;;5093725;28;20571;-59
2024/03/14 08:11:16;;;;;;;0.63;0.63;;;30.10;43.50;;;;;;5093724;28;20482;-60
2024/03/14 08:13:43;;;;;;;0.63;0.63;;;30.20;44.10;;;;;;5093655;28;20436;-59
2024/03/14 08:16:14;;;;;;;0.50;0.50;;;30.70;42.40;;;;;;5093342;28;20466;-60
2024/03/14 08:18:41;;;;;;;0.80;0.80;;;30.70;41.70;;;;;;5093087;28;20403;-60
2024/03/14 08:21:12;;;;;;;1.10;0.83;;;30.40;40.60;;;;;;5093377;28;20403;-60
2024/03/14 08:23:40;;;;;;;0.60;0.50;;;30.30;41.70;;;;;;5093744;28;20490;-60
2024/03/14 08:26:07;;;;;;;0.90;0.90;;;30.10;41.10;;;;;;5093380;28;20427;-60
2024/03/14 08:28:32;;;;;;;0.70;0.70;;;30.20;41.20;;;;;;5093139;28;20415;-61
2024/03/14 08:31:00;;;;;;;0.60;0.50;;;30.30;41.40;;;;;;5093319;28;20791;-60
2024/03/14 08:33:26;;;;;;;0.40;0.37;;;30.30;40.90;;;;;;5093170;28;20188;-60
2024/03/14 08:35:52;;;;;;;0.67;0.67;;;30.50;41.80;;;;;;5093199;28;20462;-60
2024/03/14 08:38:19;;;;;;;0.60;0.60;;;30.50;41.10;;;;;;5092937;28;20643;-60
2024/03/14 08:40:45;;;;;;;0.40;0.40;;;30.40;40.80;;;;;;5093337;28;20406;-60
2024/03/14 08:43:13;;;;;;;0.70;0.70;;;30.40;41.30;;;;;;5075153;28;20399;-60
2024/03/14 08:45:39;;;;;;;0.40;0.40;;;30.10;40.30;;;;;;5092922;28;20423;-59
2024/03/14 08:48:08;;;;;;;0.60;0.40;;;29.80;41.00;;;;;;5092729;28;20771;-60
2024/03/14 08:50:40;;;;;;;1.40;0.47;;;30.00;41.10;;;;;;5093001;28;20904;-60
2024/03/14 08:53:09;;;;;;;1.67;0.77;;;30.50;39.70;;;;;;5092950;28;20417;-60
2024/03/14 08:55:39;;;;;;;0.30;0.30;;;30.80;39.40;;;;;;5092664;28;20450;-60
2024/03/14 08:58:08;;;;;;;0.40;0.40;;;31.10;39.20;;;;;;5092442;28;20749;-60
2024/03/14 09:00:33;;;;;;;0.50;0.40;;;30.80;38.60;;;;;;5092938;28;20835;-59
2024/03/14 09:03:03;;;;;;;0.50;0.40;;;30.30;39.20;;;;;;5092706;28;20404;-59
2024/03/14 09:05:29;;;;;;;1.20;0.40;;;30.00;40.00;;;;;;5092616;28;20176;-60
2024/03/14 09:07:55;;;;;;;0.40;0.40;;;30.30;39.80;;;;;;5092762;28;20951;-59
2024/03/14 09:10:25;;;;;;;0.50;0.40;;;30.50;38.70;;;;;;5092597;28;20410;-59
2024/03/14 09:12:57;;;;;;;0.40;0.40;;;30.40;39.00;;;;;;5092600;28;20410;-61
2024/03/14 09:15:24;;;;;;;0.40;0.40;;;30.40;39.30;;;;;;5092301;28;20443;-59
2024/03/14 09:17:50;;;;;;;0.40;0.40;;;30.30;40.40;;;;;;5092499;28;20414;-59
2024/03/14 09:20:16;;;;;;;0.60;0.47;;;30.40;39.70;;;;;;5092291;28;20402;-59
2024/03/14 09:22:45;;;;;;;0.30;0.30;;;30.30;39.10;;;;;;5092359;28;20399;-60
2024/03/14 09:25:17;;;;;;;0.50;0.50;;;30.30;39.50;;;;;;5092263;28;20411;-60
2024/03/14 09:27:43;;;;;;;0.40;0.40;;;30.40;38.20;;;;;;5092437;28;20775;-60
2024/03/14 09:30:09;;;;;;;0.40;0.40;;;30.00;38.10;;;;;;5074008;28;20832;-60
2024/03/14 09:32:40;;;;;;;0.40;0.40;;;29.90;38.70;;;;;;5092105;28;20438;-60
2024/03/14 09:35:07;;;;;;;0.40;0.40;;;29.80;40.40;;;;;;5091580;28;20451;-59
2024/03/14 09:37:33;;;;;;;0.43;0.40;;;30.00;39.90;;;;;;5092078;28;21009;-60
2024/03/14 09:39:59;;;;;;;0.43;0.40;;;30.10;38.30;;;;;;5091586;28;20485;-60
2024/03/14 09:42:25;;;;;;;0.40;0.40;;;29.10;38.50;;;;;;5092216;28;20841;-62
2024/03/14 09:44:52;;;;;;;0.40;0.40;;;28.20;39.90;;;;;;5092056;28;20395;-62
2024/03/14 09:47:33;;;;;;;0.40;0.40;;;27.70;40.60;;;;;;5091713;28;20954;-62
2024/03/14 09:50:04;;;;;;;0.40;0.40;;;27.40;41.90;;;;;;5073652;28;20472;-62
2024/03/14 09:52:33;;;;;;;0.40;0.40;;;27.50;42.50;;;;;;5091910;28;20438;-62
2024/03/14 09:55:01;;;;;;;0.40;0.40;;;28.10;42.20;;;;;;5091877;28;20407;-61
2024/03/14 09:57:28;;;;;;;0.30;0.30;;;28.60;41.00;;;;;;5091793;28;20431;-62
2024/03/14 09:59:55;;;;;;;0.50;0.50;;;28.90;40.70;;;;;;5091547;28;20399;-62
2024/03/14 10:02:25;;;;;;;0.60;0.40;;;28.50;40.00;;;;;;5091824;28;20407;-62
2024/03/14 10:04:51;;;;;;;0.50;0.40;;;28.40;41.10;;;;;;5073631;28;20807;-62
2024/03/14 10:07:16;;;;;;;1.07;0.70;;;28.00;41.40;;;;;;5091708;28;20431;-61
2024/03/14 10:09:43;;;;;;;0.50;0.50;;;27.80;41.80;;;;;;5091525;28;20175;-62
2024/03/14 10:12:12;;;;;;;0.87;0.40;;;27.40;42.20;;;;;;5091698;28;20171;-62
2024/03/14 10:14:40;;;;;;;0.50;0.40;;;27.30;43.70;;;;;;5091650;28;20411;-61
2024/03/14 10:17:07;;;;;;;0.50;0.50;;;27.30;42.60;;;;;;5091520;28;20462;-62
2024/03/14 10:19:35;;;;;;;0.40;0.40;;;27.00;43.70;;;;;;5091179;28;20411;-63
2024/03/14 10:22:03;;;;;;;0.40;0.40;;;27.30;43.60;;;;;;5091689;28;20398;-62
2024/03/14 10:24:30;;;;;;;0.93;0.50;;;27.30;41.80;;;;;;5091608;28;20401;-62
2024/03/14 10:26:57;;;;;;;0.93;0.40;;;26.50;41.90;;;;;;5091504;28;20422;-62
2024/03/14 10:29:22;;;;;;;0.40;0.40;;;25.80;43.00;;;;;;5091293;28;20772;-61
2024/03/14 10:31:52;;;;;;;0.60;0.50;;;24.90;43.90;;;;;;5091427;28;20403;-61
2024/03/14 10:34:19;;;;;;;0.40;0.40;;;24.10;45.30;;;;;;5090978;28;20222;-63
2024/03/14 10:36:51;;;;;;;0.40;0.40;;;23.20;46.30;;;;;;5091548;28;20558;-63
2024/03/14 10:39:18;;;;;;;0.60;0.57;;;22.80;46.80;;;;;;5091325;28;20385;-63
2024/03/14 10:41:48;;;;;;;0.50;0.40;;;22.20;48.00;;;;;;5091472;28;20899;-63
2024/03/14 10:44:18;;;;;;;0.40;0.40;;;21.70;48.70;;;;;;5090807;28;20374;-63
2024/03/14 10:46:50;;;;;;;0.50;0.50;;;21.50;49.80;;;;;;5094894;28;20441;-62
2024/03/14 10:49:20;;;;;;;0.70;0.57;;;20.80;52.00;;;;;;5091923;28;20425;-62
2024/03/14 10:51:49;;;;;;;0.50;0.50;;;20.40;51.80;;;;;;5094770;28;20415;-63
2024/03/14 10:54:19;;;;;;;0.80;0.50;;;20.20;52.00;;;;;;5095050;28;20421;-63
2024/03/14 10:56:47;;;;;;;0.50;0.50;;;20.10;52.00;;;;;;5094567;28;20467;-62
2024/03/14 10:59:16;;;;;;;0.60;0.60;;;19.90;53.00;;;;;;5091566;28;20468;-62
2024/03/14 11:01:50;;;;;;;1.17;0.50;;;19.70;51.60;;;;;;5094641;28;20415;-63
2024/03/14 11:04:20;;;;;;;0.40;0.40;;;19.40;52.10;;;;;;5073994;28;20823;-63
2024/03/14 11:06:50;;;;;;;0.70;0.50;;;18.90;52.40;;;;;;5094459;28;20445;-62
2024/03/14 11:09:25;;;;;;;1.10;0.50;;;18.70;52.70;;;;;;5091786;28;20413;-62
2024/03/14 11:11:55;;;;;;;0.50;0.43;;;18.40;53.90;;;;;;5094514;28;20417;-63
2024/03/14 11:14:36;;;;;;;0.40;0.40;;;18.60;54.70;;;;;;5094392;28;20408;-63
2024/03/14 11:17:04;;;;;;;0.77;0.43;;;18.70;55.60;;;;;;5092587;28;20924;-63
2024/03/14 11:19:32;;;;;;;0.60;0.50;;;18.70;54.10;;;;;;5093782;28;20458;-62
2024/03/14 11:21:59;;;;;;;0.73;0.50;;;18.60;55.10;;;;;;5094187;28;20408;-61
2024/03/14 11:24:30;;;;;;;0.40;0.40;;;18.40;55.40;;;;;;5094103;28;20416;-60
2024/03/14 11:27:01;;;;;;;1.07;0.60;;;18.40;55.00;;;;;;5091786;28;20801;-60
2024/03/14 11:29:29;;;;;;;0.80;0.60;;;17.90;55.40;;;;;;5093891;28;20421;-62
2024/03/14 11:32:18;;;;;;;0.40;0.40;;;17.70;55.30;;;;;;5094300;28;20787;-61
2024/03/14 11:34:46;;;;;;;0.50;0.50;;;17.80;56.00;;;;;;5094022;28;20443;-62
2024/03/14 11:37:13;;;;;;;0.57;0.50;;;17.80;56.10;;;;;;5093595;28;20554;-62
2024/03/14 11:39:39;;;;;;;0.60;0.60;;;17.60;55.80;;;;;;5093958;28;20417;-62
2024/03/14 11:42:06;;;;;;;0.80;0.80;;;17.70;57.20;;;;;;5094379;28;20404;-62
2024/03/14 11:44:31;;;;;;;0.47;0.47;;;17.70;57.40;;;;;;5094252;28;20784;-62
2024/03/14 11:46:59;;;;;;;0.70;0.60;;;17.70;57.60;;;;;;5094096;28;20428;-61
2024/03/14 11:49:28;;;;;;;1.80;0.80;;;17.90;55.70;;;;;;5094178;28;20603;-61
2024/03/14 11:51:58;;;;;;;1.17;0.60;;;17.80;56.90;;;;;;5094136;28;20501;-61
2024/03/14 11:54:24;;;;;;;0.73;0.60;;;17.60;56.50;;;;;;5094332;28;20416;-61
2024/03/14 11:56:53;;;;;;;0.73;0.67;;;17.50;57.30;;;;;;5093088;28;20462;-61
2024/03/14 11:59:24;;;;;;;0.80;0.47;;;17.50;56.70;;;;;;5093607;28;20175;-61
2024/03/14 12:01:54;;;;;;;3.10;0.50;;;17.50;56.40;;;;;;5093976;28;20484;-61
2024/03/14 12:04:20;;;;;;;0.70;0.70;;;17.50;55.80;;;;;;5093755;28;20442;-61
2024/03/14 12:06:47;;;;;;;0.50;0.50;;;17.50;56.00;;;;;;5075570;28;20450;-61
2024/03/14 12:09:24;;;;;;;0.60;0.60;;;17.60;56.00;;;;;;5093450;28;20171;-61
2024/03/14 12:11:50;;;;;;;0.77;0.63;;;17.60;56.00;;;;;;5093609;28;20408;-61
2024/03/14 12:14:17;;;;;;;1.27;0.50;;;17.70;56.00;;;;;;5093929;28;20409;-61
2024/03/14 12:16:47;;;;;;;0.60;0.60;;;17.80;55.10;;;;;;5093329;28;20547;-62
2024/03/14 12:19:16;;;;;;;0.90;0.90;;;17.70;55.90;;;;;;5093292;28;20414;-61
2024/03/14 12:21:42;;;;;;;0.50;0.50;;;17.70;59.00;;;;;;5093561;28;20718;-61
2024/03/14 12:24:13;;;;;;;0.80;0.80;;;17.40;55.90;;;;;;5093382;28;20401;-61
2024/03/14 12:26:40;;;;;;;0.60;0.60;;;17.30;56.00;;;;;;5093294;28;20432;-61
2024/03/14 12:29:07;;;;;;;0.90;0.87;;;17.40;58.00;;;;;;5093108;28;20474;-61
2024/03/14 12:31:32;;;;;;;1.33;0.60;;;17.50;57.70;;;;;;5093457;28;20416;-62
2024/03/14 12:33:59;;;;;;;0.60;0.50;;;17.60;57.00;;;;;;5093303;28;20413;-62
2024/03/14 12:36:25;;;;;;;1.03;0.80;;;17.80;55.40;;;;;;5093153;28;20214;-61
2024/03/14 12:38:51;;;;;;;1.00;0.60;;;17.70;56.80;;;;;;5093414;28;20405;-62
2024/03/14 12:41:18;;;;;;;0.60;0.60;;;17.60;54.90;;;;;;5093044;28;20417;-62
2024/03/14 12:43:48;;;;;;;1.23;0.70;;;17.60;55.10;;;;;;5093069;28;20438;-62
2024/03/14 12:46:15;;;;;;;1.70;0.80;;;17.30;54.10;;;;;;5093069;28;20805;-62
2024/03/14 12:48:41;;;;;;;0.73;0.73;;;17.10;56.00;;;;;;5092836;28;20438;-62
2024/03/14 12:51:12;;;;;;;0.60;0.60;;;17.00;57.10;;;;;;5092946;28;20447;-62
2024/03/14 12:53:37;;;;;;;0.87;0.70;;;17.00;55.90;;;;;;5092664;28;20417;-62
2024/03/14 12:56:04;;;;;;;0.70;0.70;;;17.00;56.90;;;;;;5092939;28;20462;-62